Time;durP1;ratioP1;P1;durP2;ratioP2;P2;SDS_P1;SDS_P2;PMS_P1;PMS_P2;Temp;Humidity;BMP_temperature;BMP_pressure;BME280_temperature;BME280_humidity;BME280_pressure;Samples;Min_cycle;Max_cycle;Signal;HPM_P1;HPM_P2
2021/07/27 00:00:55;;;;;;;;;;;;;;;25.38;45.24;95093.44;2950127;40;20056;-80
2021/07/27 00:02:58;;;;;;;;;;;;;;;25.32;45.44;95096.03;2943336;40;19941;-79
2021/07/27 00:05:00;;;;;;;;;;;;;;;25.29;45.54;95095.69;2942022;40;20040;-82
2021/07/27 00:07:02;;;;;;;;;;;;;;;25.24;45.70;95096.44;2954888;40;19964;-80
2021/07/27 00:09:03;;;;;;;;;;;;;;;25.18;45.97;95093.88;2941831;40;19981;-80
2021/07/27 00:11:06;;;;;;;;;;;;;;;25.17;45.66;95090.38;2941374;40;19953;-80
2021/07/27 00:13:07;;;;;;;;;;;;;;;25.16;45.54;95096.78;2948968;40;19943;-79
2021/07/27 00:15:09;;;;;;;;;;;;;;;25.14;45.63;95097.03;2949076;40;20030;-79
2021/07/27 00:17:11;;;;;;;;;;;;;;;25.07;45.94;95098.22;2955003;40;20222;-79
2021/07/27 00:19:12;;;;;;;;;;;;;;;25.01;45.96;95099.19;2948055;40;19992;-80
2021/07/27 00:21:14;;;;;;;;;;;;;;;24.97;45.89;95104.19;2943432;40;20298;-78
2021/07/27 00:23:16;;;;;;;;;;;;;;;24.93;46.21;95103.06;2949514;40;20087;-79
2021/07/27 00:25:18;;;;;;;;;;;;;;;24.96;46.24;95102.59;2949759;40;19964;-80
2021/07/27 00:27:20;;;;;;;;;;;;;;;24.98;46.34;95108.53;2947613;40;19944;-79
2021/07/27 00:29:22;;;;;;;;;;;;;;;24.98;46.42;95105.03;2947861;40;19960;-80
2021/07/27 00:31:24;;;;;;;;;;;;;;;24.91;46.54;95102.50;2950972;40;20087;-78
2021/07/27 00:33:25;;;;;;;;;;;;;;;24.86;46.69;95103.19;2949791;40;19941;-84
2021/07/27 00:35:28;;;;;;;;;;;;;;;24.85;46.79;95106.13;2949764;40;19941;-79
2021/07/27 00:37:32;;;;;;;;;;;;;;;24.87;46.72;95110.19;2950774;40;19968;-79
2021/07/27 00:39:34;;;;;;;;;;;;;;;24.89;46.82;95101.91;2948511;40;19944;-79
2021/07/27 00:41:35;;;;;;;;;;;;;;;24.88;46.86;95103.75;2947562;40;20400;-79
2021/07/27 00:43:37;;;;;;;;;;;;;;;24.86;46.76;95105.06;2949176;40;19937;-80
2021/07/27 00:45:39;;;;;;;;;;;;;;;24.80;46.92;95109.53;2950410;40;20019;-80
2021/07/27 00:47:41;;;;;;;;;;;;;;;24.77;46.96;95099.28;2949985;40;19945;-80
2021/07/27 00:49:42;;;;;;;;;;;;;;;24.77;47.07;95103.81;2941135;40;20280;-78
2021/07/27 00:51:44;;;;;;;;;;;;;;;24.75;47.14;95093.34;2942179;40;19957;-80
2021/07/27 00:53:45;;;;;;;;;;;;;;;24.73;46.70;95100.78;2951420;40;20031;-80
2021/07/27 00:55:48;;;;;;;;;;;;;;;24.70;46.79;95098.59;2955646;40;19949;-79
2021/07/27 00:57:50;;;;;;;;;;;;;;;24.65;46.79;95090.44;2949937;40;20202;-81
2021/07/27 00:59:51;;;;;;;;;;;;;;;24.68;46.87;95095.34;2951280;40;20361;-80
2021/07/27 01:01:53;;;;;;;;;;;;;;;24.69;46.86;95095.13;2941775;40;19945;-78
2021/07/27 01:03:54;;;;;;;;;;;;;;;24.72;46.91;95099.19;2951896;40;20396;-77
2021/07/27 01:05:56;;;;;;;;;;;;;;;24.63;46.91;95097.91;2952293;40;19977;-67
2021/07/27 01:07:58;;;;;;;;;;;;;;;24.65;46.95;95104.69;2948794;40;19953;-68
2021/07/27 01:09:59;;;;;;;;;;;;;;;24.65;47.04;95099.31;2955372;40;19945;-68
2021/07/27 01:12:04;;;;;;;;;;;;;;;24.58;47.24;95111.19;2950259;40;19970;-68
2021/07/27 01:14:06;;;;;;;;;;;;;;;24.47;47.42;95110.94;2941704;40;20269;-67
2021/07/27 01:16:09;;;;;;;;;;;;;;;24.39;47.83;95113.19;2948522;40;19945;-68
2021/07/27 01:18:16;;;;;;;;;;;;;;;24.36;47.93;95108.31;2939270;40;20009;-68
2021/07/27 01:42:04;;;;;;;;;;;;;;;24.42;47.42;95107.38;2948476;40;19945;-69
2021/07/27 01:43:30;;;;;;;;;;;;;;;24.43;47.32;95104.44;2952837;40;20423;-68
2021/07/27 01:45:32;;;;;;;;;;;;;;;24.30;47.82;95105.50;2948218;40;20290;-67
2021/07/27 01:47:33;;;;;;;;;;;;;;;24.18;48.25;95103.88;2950233;40;20015;-68
2021/07/27 01:49:35;;;;;;;;;;;;;;;24.01;48.38;95101.94;2948867;40;19948;-68
2021/07/27 01:51:43;;;;;;;;;;;;;;;23.89;48.41;95101.91;2949036;40;20203;-68
2021/07/27 01:53:49;;;;;;;;;;;;;;;23.80;49.08;95103.31;2947786;40;19960;-68
2021/07/27 01:55:51;;;;;;;;;;;;;;;23.82;49.02;95101.22;2948822;40;20333;-68
2021/07/27 01:57:53;;;;;;;;;;;;;;;23.86;48.96;95099.72;2953166;40;19959;-67
2021/07/27 01:59:57;;;;;;;;;;;;;;;23.88;48.61;95094.16;2949911;40;20278;-68
2021/07/27 02:01:59;;;;;;;;;;;;;;;23.83;48.58;95100.19;2950172;40;19997;-68
2021/07/27 02:04:00;;;;;;;;;;;;;;;23.86;49.13;95099.72;2948132;40;19937;-69
2021/07/27 02:06:02;;;;;;;;;;;;;;;23.88;48.87;95102.97;2941562;40;20012;-66
2021/07/27 02:08:03;;;;;;;;;;;;;;;23.90;48.96;95106.25;2949385;40;20059;-68
2021/07/27 02:10:08;;;;;;;;;;;;;;;23.90;49.17;95108.09;2948614;40;19949;-69
2021/07/27 02:12:18;;;;;;;;;;;;;;;23.89;48.76;95103.78;2948741;40;20110;-69
2021/07/27 02:14:19;;;;;;;;;;;;;;;23.94;48.85;95114.63;2950406;40;20007;-67
2021/07/27 02:16:21;;;;;;;;;;;;;;;23.94;48.95;95111.13;2950934;40;19948;-68
2021/07/27 02:18:23;;;;;;;;;;;;;;;23.93;48.85;95115.66;2940725;40;19981;-78
2021/07/27 02:20:25;;;;;;;;;;;;;;;23.90;48.92;95108.91;2952240;40;19956;-80
2021/07/27 02:22:27;;;;;;;;;;;;;;;23.95;48.77;95113.56;2951408;40;19977;-79
2021/07/27 02:24:28;;;;;;;;;;;;;;;23.92;48.86;95117.53;2942174;40;19945;-79
2021/07/27 02:26:30;;;;;;;;;;;;;;;23.90;48.83;95116.94;2953729;40;20283;-78
2021/07/27 02:28:31;;;;;;;;;;;;;;;23.92;48.57;95117.53;2950522;40;19949;-78
2021/07/27 02:30:37;;;;;;;;;;;;;;;23.86;48.94;95110.44;2950692;40;20288;-79
2021/07/27 02:32:39;;;;;;;;;;;;;;;23.84;48.65;95109.03;2953491;40;20447;-79
2021/07/27 02:34:41;;;;;;;;;;;;;;;23.80;48.61;95113.22;2950803;40;19961;-81
2021/07/27 02:36:42;;;;;;;;;;;;;;;23.73;48.78;95104.47;2951383;40;20481;-78
2021/07/27 02:38:44;;;;;;;;;;;;;;;23.68;48.88;95105.97;2950378;40;20565;-79
2021/07/27 02:40:46;;;;;;;;;;;;;;;23.70;49.29;95100.38;2952841;40;20564;-79
2021/07/27 02:42:48;;;;;;;;;;;;;;;23.72;49.38;95108.97;2949899;40;20232;-79
2021/07/27 02:44:50;;;;;;;;;;;;;;;23.68;49.15;95097.94;2952909;40;20344;-80
2021/07/27 02:46:52;;;;;;;;;;;;;;;23.69;49.20;95107.59;2941135;40;19937;-78
2021/07/27 02:48:53;;;;;;;;;;;;;;;23.70;49.38;95101.19;2940883;40;19941;-80
2021/07/27 02:50:59;;;;;;;;;;;;;;;23.70;49.47;95103.88;2949638;40;19945;-77
2021/07/27 02:53:00;;;;;;;;;;;;;;;23.74;49.41;95112.22;2948668;40;20307;-79
2021/07/27 02:55:02;;;;;;;;;;;;;;;23.76;48.80;95112.84;2954944;40;19956;-79
2021/07/27 02:57:04;;;;;;;;;;;;;;;23.76;48.92;95112.03;2949591;40;19944;-68
2021/07/27 02:59:05;;;;;;;;;;;;;;;23.73;49.19;95117.84;2935737;40;20408;-68
2021/07/27 03:01:07;;;;;;;;;;;;;;;23.69;49.26;95117.47;2948941;40;20046;-67
2021/07/27 03:03:09;;;;;;;;;;;;;;;23.70;49.23;95119.94;2950900;40;20290;-67
2021/07/27 03:05:11;;;;;;;;;;;;;;;23.74;49.17;95116.78;2951229;40;19941;-80
2021/07/27 03:07:18;;;;;;;;;;;;;;;23.79;49.05;95117.75;2949057;40;20290;-79
2021/07/27 03:09:34;;;;;;;;;;;;;;;23.81;49.12;95122.84;2953290;40;20030;-79
2021/07/27 03:11:36;;;;;;;;;;;;;;;23.77;49.06;95119.00;2941006;40;20338;-79
2021/07/27 03:13:37;;;;;;;;;;;;;;;23.73;48.99;95115.16;2941689;40;19949;-79
2021/07/27 03:15:39;;;;;;;;;;;;;;;23.76;49.53;95120.06;2952787;40;20060;-78
2021/07/27 03:17:41;;;;;;;;;;;;;;;23.80;49.03;95124.72;2940064;40;20000;-80
2021/07/27 03:19:42;;;;;;;;;;;;;;;23.80;49.19;95124.72;2952506;40;19965;-78
2021/07/27 03:21:44;;;;;;;;;;;;;;;23.73;49.37;95125.88;2948333;40;19941;-79
2021/07/27 03:23:46;;;;;;;;;;;;;;;23.73;49.43;95125.88;2953607;40;19937;-81
2021/07/27 03:25:48;;;;;;;;;;;;;;;23.73;49.69;95124.00;2938635;40;19947;-80
2021/07/27 03:27:50;;;;;;;;;;;;;;;23.74;49.55;95120.25;2951807;40;19958;-80
2021/07/27 03:29:51;;;;;;;;;;;;;;;23.66;49.65;95123.25;2953530;40;20034;-79
2021/07/27 03:31:53;;;;;;;;;;;;;;;23.64;49.25;95122.69;2949350;40;19949;-80
2021/07/27 03:33:54;;;;;;;;;;;;;;;23.43;50.00;95124.88;2952058;40;19956;-78
2021/07/27 03:35:56;;;;;;;;;;;;;;;23.19;50.35;95126.66;2951521;40;19944;-79
2021/07/27 03:37:57;;;;;;;;;;;;;;;22.54;52.38;95132.56;2951356;40;20011;-79
2021/07/27 03:39:59;;;;;;;;;;;;;;;21.99;53.41;95135.19;2955237;40;19952;-80
2021/07/27 03:42:01;;;;;;;;;;;;;;;21.63;54.71;95136.72;2943127;40;20357;-77
2021/07/27 03:44:02;;;;;;;;;;;;;;;21.74;54.28;95135.19;2946296;40;20270;-79
2021/07/27 03:46:04;;;;;;;;;;;;;;;21.90;54.06;95142.66;2949610;40;20000;-80
2021/07/27 03:48:06;;;;;;;;;;;;;;;21.77;54.41;95140.06;2950426;40;20012;-80
2021/07/27 03:50:09;;;;;;;;;;;;;;;21.98;53.88;95134.34;2942282;40;20330;-80
2021/07/27 03:52:10;;;;;;;;;;;;;;;21.72;54.60;95138.06;2949319;40;19952;-79
2021/07/27 03:54:12;;;;;;;;;;;;;;;21.57;54.84;95141.06;2941743;40;20323;-81
2021/07/27 03:56:13;;;;;;;;;;;;;;;21.79;54.49;95140.69;2955025;40;20007;-79
2021/07/27 03:58:15;;;;;;;;;;;;;;;22.06;53.67;95146.59;2950564;40;19937;-81
2021/07/27 04:00:17;;;;;;;;;;;;;;;22.31;53.22;95146.59;2950193;40;19944;-78
2021/07/27 04:02:18;;;;;;;;;;;;;;;22.50;52.47;95139.44;2944905;40;19945;-80
2021/07/27 04:04:20;;;;;;;;;;;;;;;22.70;51.93;95149.88;2946985;40;20389;-80
2021/07/27 04:06:21;;;;;;;;;;;;;;;22.86;51.54;95149.25;2951009;40;20360;-81
2021/07/27 04:08:23;;;;;;;;;;;;;;;23.06;50.72;95148.22;2953583;40;20602;-80
2021/07/27 04:10:24;;;;;;;;;;;;;;;23.19;50.57;95142.69;2957591;40;19941;-81
2021/07/27 04:12:26;;;;;;;;;;;;;;;23.27;50.55;95139.72;2943787;40;20409;-81
2021/07/27 04:14:28;;;;;;;;;;;;;;;23.36;49.97;95139.34;2950837;40;19958;-81
2021/07/27 04:16:29;;;;;;;;;;;;;;;23.45;50.00;95138.00;2953870;40;19969;-79
2021/07/27 04:18:31;;;;;;;;;;;;;;;23.55;49.58;95148.94;2948450;40;19948;-79
2021/07/27 04:20:33;;;;;;;;;;;;;;;23.56;49.91;95139.91;2942421;40;20279;-78
2021/07/27 04:22:34;;;;;;;;;;;;;;;23.61;49.36;95153.38;2951859;40;19937;-78
2021/07/27 04:24:36;;;;;;;;;;;;;;;23.58;49.90;95151.19;2950215;40;20015;-81
2021/07/27 04:26:37;;;;;;;;;;;;;;;23.62;49.42;95151.53;2951610;40;20016;-80
2021/07/27 04:28:41;;;;;;;;;;;;;;;23.69;49.22;95147.69;2952772;40;20026;-81
2021/07/27 04:30:42;;;;;;;;;;;;;;;23.74;49.55;95159.56;2953542;40;19964;-78
2021/07/27 04:32:44;;;;;;;;;;;;;;;23.71;49.24;95145.63;2953911;40;20292;-78
2021/07/27 04:34:45;;;;;;;;;;;;;;;23.49;50.02;95147.22;2952146;40;19999;-79
2021/07/27 04:36:48;;;;;;;;;;;;;;;23.47;50.35;95142.09;2950791;40;19937;-80
2021/07/27 04:38:50;;;;;;;;;;;;;;;23.58;49.66;95145.81;2952809;40;19945;-82
2021/07/27 04:40:51;;;;;;;;;;;;;;;23.73;49.71;95144.59;2953437;40;19955;-81
2021/07/27 04:42:53;;;;;;;;;;;;;;;23.85;49.42;95140.06;2953315;40;20032;-77
2021/07/27 04:44:55;;;;;;;;;;;;;;;23.94;49.09;95138.72;2949745;40;19956;-80
2021/07/27 04:46:56;;;;;;;;;;;;;;;24.06;48.58;95139.50;2949801;40;20297;-79
2021/07/27 04:48:58;;;;;;;;;;;;;;;24.14;48.34;95135.69;2947555;40;19996;-80
2021/07/27 04:51:00;;;;;;;;;;;;;;;24.25;48.45;95128.69;2954385;40;19937;-81
2021/07/27 04:53:05;;;;;;;;;;;;;;;24.38;48.24;95124.97;2950593;40;19948;-79
2021/07/27 04:55:07;;;;;;;;;;;;;;;24.48;47.86;95131.38;2950829;40;20163;-79
2021/07/27 04:57:09;;;;;;;;;;;;;;;24.40;48.35;95134.38;2954842;40;19945;-84
2021/07/27 04:59:11;;;;;;;;;;;;;;;24.21;49.11;95138.22;2955629;40;20022;-80
2021/07/27 05:01:12;;;;;;;;;;;;;;;24.15;48.84;95149.88;2949364;40;20046;-79
2021/07/27 05:03:14;;;;;;;;;;;;;;;23.95;49.58;95153.69;2956701;40;19937;-80
2021/07/27 05:05:15;;;;;;;;;;;;;;;23.69;50.10;95146.91;2951560;40;19996;-79
2021/07/27 05:07:17;;;;;;;;;;;;;;;23.80;49.80;95153.34;2954672;40;20061;-80
2021/07/27 05:09:18;;;;;;;;;;;;;;;23.94;49.67;95154.75;2947914;40;19960;-81
2021/07/27 05:11:20;;;;;;;;;;;;;;;24.10;49.30;95150.56;2954348;40;19989;-78
2021/07/27 05:13:22;;;;;;;;;;;;;;;24.28;48.59;95152.31;2955189;40;19948;-68
2021/07/27 05:15:23;;;;;;;;;;;;;;;24.40;48.40;95149.63;2945590;40;20047;-68
2021/07/27 05:17:25;;;;;;;;;;;;;;;24.52;47.97;95155.81;2953561;40;20079;-69
2021/07/27 05:19:27;;;;;;;;;;;;;;;24.66;47.60;95164.41;2951479;40;19948;-69
2021/07/27 05:21:28;;;;;;;;;;;;;;;24.73;47.24;95160.53;2952726;40;20155;-69
2021/07/27 05:23:30;;;;;;;;;;;;;;;24.79;47.47;95160.66;2951008;40;19949;-68
2021/07/27 05:25:32;;;;;;;;;;;;;;;24.85;47.05;95165.88;2949869;40;19952;-67
2021/07/27 05:27:34;;;;;;;;;;;;;;;24.88;47.36;95164.59;2950116;40;19948;-68
2021/07/27 05:29:35;;;;;;;;;;;;;;;24.66;47.82;95159.88;2954700;40;19933;-68
2021/07/27 05:31:37;;;;;;;;;;;;;;;24.60;47.99;95160.00;2948623;40;20028;-69
2021/07/27 05:33:38;;;;;;;;;;;;;;;24.63;47.80;95162.19;2955441;40;19953;-68
2021/07/27 05:35:40;;;;;;;;;;;;;;;24.76;47.49;95167.31;2952053;40;19979;-68
2021/07/27 05:37:44;;;;;;;;;;;;;;;24.85;47.43;95160.53;2942609;40;20339;-68
2021/07/27 05:39:45;;;;;;;;;;;;;;;25.00;46.48;95156.53;2948624;40;20007;-69
2021/07/27 05:41:47;;;;;;;;;;;;;;;25.08;46.23;95164.16;2937344;40;20393;-69
2021/07/27 05:43:48;;;;;;;;;;;;;;;24.95;46.71;95165.25;2947360;40;20028;-70
2021/07/27 05:45:50;;;;;;;;;;;;;;;24.90;46.78;95162.50;2947026;40;20329;-69
2021/07/27 05:47:52;;;;;;;;;;;;;;;25.02;46.48;95165.97;2950638;40;19969;-69
2021/07/27 05:49:54;;;;;;;;;;;;;;;25.04;47.09;95163.84;2952390;40;19947;-68
2021/07/27 05:51:56;;;;;;;;;;;;;;;24.93;47.09;95167.41;2948962;40;20034;-68
2021/07/27 05:53:57;;;;;;;;;;;;;;;24.92;47.50;95163.88;2940113;40;19945;-70
2021/07/27 05:55:59;;;;;;;;;;;;;;;24.62;48.34;95169.41;2949765;40;19939;-68
2021/07/27 05:58:00;;;;;;;;;;;;;;;24.72;48.15;95171.50;2954707;40;19937;-69
2021/07/27 06:00:03;;;;;;;;;;;;;;;24.76;47.96;95166.47;2951716;40;19937;-68
2021/07/27 06:02:04;;;;;;;;;;;;;;;24.86;47.77;95167.50;2945890;40;19953;-69
2021/07/27 06:04:06;;;;;;;;;;;;;;;24.61;48.49;95172.31;2950970;40;19953;-70
2021/07/27 06:06:07;;;;;;;;;;;;;;;24.76;48.13;95171.84;2948828;40;19952;-80
2021/07/27 06:08:09;;;;;;;;;;;;;;;24.71;48.47;95176.03;2953279;40;20031;-82
2021/07/27 06:10:11;;;;;;;;;;;;;;;24.79;47.98;95182.91;2950387;40;20046;-80
2021/07/27 06:12:12;;;;;;;;;;;;;;;24.83;47.68;95170.66;2938736;40;19944;-82
2021/07/27 06:14:14;;;;;;;;;;;;;;;25.01;47.64;95176.91;2950260;40;19937;-69
2021/07/27 06:16:15;;;;;;;;;;;;;;;25.22;47.27;95170.91;2949956;40;19952;-68
2021/07/27 06:18:17;;;;;;;;;;;;;;;25.44;46.67;95170.25;2948515;40;19976;-69
2021/07/27 06:20:19;;;;;;;;;;;;;;;25.66;45.99;95160.47;2939908;40;20119;-68
2021/07/27 06:22:22;;;;;;;;;;;;;;;25.82;45.49;95161.53;2948804;40;20281;-68
2021/07/27 06:24:24;;;;;;;;;;;;;;;25.87;45.16;95169.66;2949972;40;19992;-70
2021/07/27 06:26:26;;;;;;;;;;;;;;;26.02;45.17;95163.75;2940829;40;19937;-68
2021/07/27 06:28:27;;;;;;;;;;;;;;;26.13;44.88;95168.19;2933291;40;19942;-69
2021/07/27 06:30:30;;;;;;;;;;;;;;;26.26;45.03;95163.56;2948990;40;19968;-69
2021/07/27 06:32:32;;;;;;;;;;;;;;;26.31;44.38;95166.34;2952670;40;19978;-70
2021/07/27 06:34:33;;;;;;;;;;;;;;;26.42;44.39;95162.75;2950132;40;19937;-69
2021/07/27 06:36:35;;;;;;;;;;;;;;;26.48;43.93;95150.16;2948004;40;20167;-68
2021/07/27 06:38:36;;;;;;;;;;;;;;;26.51;44.09;95158.56;2946968;40;19982;-68
2021/07/27 06:40:38;;;;;;;;;;;;;;;26.34;43.97;95160.47;2951531;40;20293;-68
2021/07/27 06:42:40;;;;;;;;;;;;;;;25.65;45.51;95152.66;2951476;40;20170;-69
2021/07/27 06:44:41;;;;;;;;;;;;;;;25.35;46.27;95159.09;2950975;40;20016;-71
2021/07/27 06:46:43;;;;;;;;;;;;;;;25.57;46.03;95155.72;2950050;40;20037;-68
2021/07/27 06:48:44;;;;;;;;;;;;;;;25.65;46.05;95158.81;2953013;40;20522;-68
2021/07/27 06:50:46;;;;;;;;;;;;;;;25.61;46.04;95148.81;2952730;40;19948;-68
2021/07/27 06:52:47;;;;;;;;;;;;;;;25.74;45.53;95162.72;2950448;40;19965;-68
2021/07/27 06:54:49;;;;;;;;;;;;;;;25.90;45.36;95147.72;2952571;40;19945;-69
2021/07/27 06:56:54;;;;;;;;;;;;;;;26.10;44.91;95154.47;2949611;40;19945;-68
2021/07/27 06:58:55;;;;;;;;;;;;;;;26.10;44.48;95160.66;2946360;40;20187;-68
2021/07/27 07:01:01;;;;;;;;;;;;;;;26.21;44.23;95160.81;2944664;40;20293;-68
2021/07/27 07:03:03;;;;;;;;;;;;;;;26.39;43.96;95149.78;2949860;40;19957;-68
2021/07/27 07:05:04;;;;;;;;;;;;;;;26.48;43.99;95147.47;2951742;40;19937;-69
2021/07/27 07:07:09;;;;;;;;;;;;;;;26.37;43.93;95154.59;2950138;40;19941;-71
2021/07/27 07:09:10;;;;;;;;;;;;;;;26.41;43.45;95150.34;2950253;40;20224;-69
2021/07/27 07:11:12;;;;;;;;;;;;;;;26.23;43.87;95151.44;2946923;40;20282;-68
2021/07/27 07:13:14;;;;;;;;;;;;;;;26.26;43.70;95153.63;2949979;40;19937;-69
2021/07/27 07:15:15;;;;;;;;;;;;;;;26.50;43.81;95151.56;2951315;40;19949;-69
2021/07/27 07:17:17;;;;;;;;;;;;;;;26.76;42.86;95151.94;2952294;40;19949;-68
2021/07/27 07:19:19;;;;;;;;;;;;;;;26.63;42.83;95147.75;2948332;40;20219;-67
2021/07/27 07:21:20;;;;;;;;;;;;;;;26.72;42.82;95148.13;2948886;40;19937;-70
2021/07/27 07:23:23;;;;;;;;;;;;;;;26.92;42.15;95140.28;2942588;40;20259;-70
2021/07/27 07:25:24;;;;;;;;;;;;;;;27.09;42.29;95134.03;2950678;40;19956;-70
2021/07/27 07:27:26;;;;;;;;;;;;;;;26.81;41.47;95138.56;2952871;40;20034;-69
2021/07/27 07:29:28;;;;;;;;;;;;;;;26.95;41.40;95133.59;2949328;40;19940;-70
2021/07/27 07:31:29;;;;;;;;;;;;;;;27.08;41.78;95133.25;2950448;40;19966;-68
2021/07/27 07:33:31;;;;;;;;;;;;;;;27.18;41.11;95136.00;2950952;40;20282;-68
2021/07/27 07:35:33;;;;;;;;;;;;;;;27.34;40.30;95136.19;2949756;40;20055;-69
2021/07/27 07:37:34;;;;;;;;;;;;;;;27.49;40.70;95135.53;2946011;40;19952;-81
2021/07/27 07:39:36;;;;;;;;;;;;;;;27.55;39.95;95138.06;2944208;40;19945;-68
2021/07/27 07:41:37;;;;;;;;;;;;;;;27.73;40.10;95142.25;2948042;40;19964;-69
2021/07/27 07:43:40;;;;;;;;;;;;;;;27.86;39.55;95140.22;2945736;40;20313;-69
2021/07/27 07:45:41;;;;;;;;;;;;;;;28.03;39.73;95140.06;2949119;40;19943;-68
2021/07/27 07:47:43;;;;;;;;;;;;;;;28.13;38.70;95132.88;2948874;40;19937;-70
2021/07/27 07:49:45;;;;;;;;;;;;;;;27.89;38.59;95142.41;2949805;40;19992;-69
2021/07/27 07:51:48;;;;;;;;;;;;;;;27.79;39.27;95143.06;2947430;40;19976;-69
2021/07/27 07:54:07;;;;;;;;;;;;;;;27.77;39.08;95142.56;2949737;40;20091;-69
2021/07/27 07:56:11;;;;;;;;;;;;;;;27.57;38.91;95143.97;2934357;40;19942;-81
2021/07/27 07:58:13;;;;;;;;;;;;;;;27.76;39.35;95143.59;2941752;40;20310;-81
2021/07/27 08:00:15;;;;;;;;;;;;;;;28.05;38.65;95141.44;2946621;40;20332;-69
2021/07/27 08:02:17;;;;;;;;;;;;;;;28.18;38.10;95143.69;2941194;40;19953;-69
2021/07/27 08:04:18;;;;;;;;;;;;;;;28.32;38.48;95149.44;2949270;40;20287;-69
2021/07/27 08:06:20;;;;;;;;;;;;;;;28.19;38.19;95141.81;2951359;40;20008;-69
2021/07/27 08:08:22;;;;;;;;;;;;;;;28.20;38.01;95146.13;2951079;40;20116;-68
2021/07/27 08:10:23;;;;;;;;;;;;;;;28.01;38.39;95136.81;2944794;40;20185;-69
2021/07/27 08:12:25;;;;;;;;;;;;;;;28.01;38.08;95147.59;2945062;40;19973;-71
2021/07/27 08:14:28;;;;;;;;;;;;;;;27.82;38.34;95145.28;2950117;40;19945;-71
2021/07/27 08:16:30;;;;;;;;;;;;;;;27.88;38.27;95138.09;2951319;40;20249;-70
2021/07/27 08:18:31;;;;;;;;;;;;;;;27.84;38.03;95148.53;2945730;40;19964;-67
2021/07/27 08:20:33;;;;;;;;;;;;;;;27.93;38.59;95141.63;2950663;40;19949;-68
2021/07/27 08:22:38;;;;;;;;;;;;;;;27.62;39.09;95139.69;2947546;40;19949;-81
2021/07/27 08:24:39;;;;;;;;;;;;;;;27.60;39.42;95139.97;2951332;40;19945;-81
2021/07/27 08:26:41;;;;;;;;;;;;;;;27.88;39.16;95146.97;2953026;40;19941;-80
2021/07/27 08:28:45;;;;;;;;;;;;;;;28.01;38.37;95142.19;2951123;40;20074;-82
2021/07/27 08:30:46;;;;;;;;;;;;;;;28.01;38.05;95143.03;2951188;40;19978;-81
2021/07/27 08:32:48;;;;;;;;;;;;;;;28.21;37.54;95144.25;2946519;40;20626;-81
2021/07/27 08:34:50;;;;;;;;;;;;;;;28.40;37.90;95145.44;2950295;40;19964;-80
2021/07/27 08:36:52;;;;;;;;;;;;;;;28.67;36.96;95131.06;2953618;40;20005;-82
2021/07/27 08:38:53;;;;;;;;;;;;;;;28.95;37.29;95137.91;2953132;40;20264;-81
2021/07/27 08:40:58;;;;;;;;;;;;;;;29.18;37.29;95142.88;2951917;40;20286;-80
2021/07/27 08:42:59;;;;;;;;;;;;;;;29.35;36.36;95134.56;2948159;40;19960;-83
2021/07/27 08:45:03;;;;;;;;;;;;;;;29.18;36.29;95131.28;2950047;40;19944;-82
2021/07/27 08:47:05;;;;;;;;;;;;;;;28.92;36.72;95144.66;2951536;40;20027;-82
2021/07/27 08:49:07;;;;;;;;;;;;;;;28.83;36.59;95130.06;2942311;40;20302;-83
2021/07/27 08:51:09;;;;;;;;;;;;;;;28.84;35.86;95131.66;2951304;40;19953;-82
2021/07/27 08:53:10;;;;;;;;;;;;;;;29.07;35.84;95133.13;2949832;40;20263;-83
2021/07/27 08:55:12;;;;;;;;;;;;;;;28.82;35.97;95125.72;2953686;40;19945;-80
2021/07/27 08:57:14;;;;;;;;;;;;;;;29.13;35.76;95123.19;2946906;40;19945;-82
2021/07/27 08:59:16;;;;;;;;;;;;;;;29.43;35.33;95124.31;2955419;40;20214;-82
2021/07/27 09:01:25;;;;;;;;;;;;;;;29.15;35.80;95123.75;2951187;40;19968;-82
2021/07/27 09:03:28;;;;;;;;;;;;;;;29.17;36.15;95116.19;2949566;40;20038;-79
2021/07/27 09:05:30;;;;;;;;;;;;;;;29.14;35.89;95120.22;2949574;40;19940;-80
2021/07/27 09:07:31;;;;;;;;;;;;;;;29.19;35.97;95114.03;2947960;40;19949;-81
2021/07/27 09:09:34;;;;;;;;;;;;;;;29.53;35.85;95121.63;2953750;40;19984;-81
2021/07/27 09:11:54;;;;;;;;;;;;;;;29.73;34.98;95113.59;2948022;40;19948;-81
2021/07/27 09:13:56;;;;;;;;;;;;;;;29.74;34.90;95119.81;2940703;40;19956;-81
2021/07/27 09:15:58;;;;;;;;;;;;;;;29.76;35.22;95114.94;2945847;40;19952;-80
2021/07/27 09:18:03;;;;;;;;;;;;;;;29.99;35.40;95114.41;2945335;40;20380;-81
2021/07/27 09:20:04;;;;;;;;;;;;;;;30.24;35.43;95112.72;2945683;40;19965;-81
2021/07/27 09:22:06;;;;;;;;;;;;;;;30.52;35.33;95121.34;2953627;40;19949;-81
2021/07/27 09:24:11;;;;;;;;;;;;;;;30.75;34.95;95109.91;2950282;40;20292;-80
2021/07/27 09:26:21;;;;;;;;;;;;;;;30.89;34.26;95117.47;2947021;40;20046;-80
2021/07/27 09:28:23;;;;;;;;;;;;;;;30.90;34.06;95117.19;2952949;40;20015;-82
2021/07/27 09:30:25;;;;;;;;;;;;;;;30.75;35.05;95114.53;2950820;40;19945;-81
2021/07/27 09:32:26;;;;;;;;;;;;;;;30.78;35.03;95108.56;2948740;40;20030;-81
2021/07/27 09:34:28;;;;;;;;;;;;;;;30.78;34.63;95114.78;2948808;40;20316;-81
2021/07/27 09:36:31;;;;;;;;;;;;;;;30.88;34.73;95113.16;2946977;40;19941;-81
2021/07/27 09:38:33;;;;;;;;;;;;;;;30.89;34.79;95109.34;2941030;40;19981;-81
2021/07/27 09:40:36;;;;;;;;;;;;;;;31.02;34.86;95108.78;2952638;40;19945;-81
2021/07/27 09:42:37;;;;;;;;;;;;;;;31.22;34.53;95103.25;2951406;40;20311;-80
2021/07/27 09:44:39;;;;;;;;;;;;;;;31.35;34.57;95104.50;2949683;40;20313;-82
2021/07/27 09:46:41;;;;;;;;;;;;;;;31.51;34.08;95099.03;2958535;40;19944;-81
2021/07/27 09:48:42;;;;;;;;;;;;;;;31.67;34.15;95097.03;2949234;40;19944;-82
2021/07/27 09:50:46;;;;;;;;;;;;;;;31.79;33.03;95109.13;2943074;40;20356;-80
2021/07/27 09:52:47;;;;;;;;;;;;;;;31.88;33.71;95103.06;2949993;40;19979;-82
2021/07/27 09:54:49;;;;;;;;;;;;;;;31.80;32.48;95101.78;2952641;40;20000;-83
2021/07/27 09:56:51;;;;;;;;;;;;;;;31.58;32.35;95099.53;2946725;40;20012;-70
2021/07/27 09:58:53;;;;;;;;;;;;;;;31.69;33.10;95103.78;2950334;40;20228;-70
2021/07/27 10:00:56;;;;;;;;;;;;;;;31.82;32.79;95096.91;2947318;40;19937;-70
2021/07/27 10:02:58;;;;;;;;;;;;;;;31.77;32.27;95094.22;2948957;40;19941;-68
2021/07/27 10:04:59;;;;;;;;;;;;;;;31.86;32.33;95089.00;2948378;40;20336;-69
2021/07/27 10:07:28;;;;;;;;;;;;;;;31.98;32.22;95086.75;2948648;40;19949;-68
2021/07/27 10:09:32;;;;;;;;;;;;;;;31.93;32.18;95095.72;2948229;40;19961;-83
2021/07/27 10:11:33;;;;;;;;;;;;;;;31.97;32.06;95085.94;2950636;40;20271;-81
2021/07/27 10:13:36;;;;;;;;;;;;;;;32.11;31.92;95080.66;2949626;40;19960;-80
2021/07/27 10:15:41;;;;;;;;;;;;;;;32.23;31.34;95083.81;2943446;40;19945;-82
2021/07/27 10:17:49;;;;;;;;;;;;;;;32.37;31.99;95080.41;2941768;40;19954;-81
2021/07/27 10:19:51;;;;;;;;;;;;;;;32.33;31.30;95082.09;2948743;40;20009;-80
2021/07/27 10:22:03;;;;;;;;;;;;;;;32.34;31.90;95079.09;2949794;40;20023;-80
2021/07/27 10:24:12;;;;;;;;;;;;;;;32.41;31.11;95079.53;2950282;40;19961;-80
2021/07/27 10:26:13;;;;;;;;;;;;;;;32.38;31.52;95076.63;2945134;40;19987;-79
2021/07/27 10:28:20;;;;;;;;;;;;;;;32.48;31.75;95065.63;2942516;40;20377;-81
2021/07/27 10:30:32;;;;;;;;;;;;;;;32.67;31.40;95064.91;2950396;40;19991;-82
2021/07/27 10:32:33;;;;;;;;;;;;;;;32.75;30.43;95061.56;2951089;40;19937;-68
2021/07/27 10:34:35;;;;;;;;;;;;;;;32.77;31.17;95062.88;2947757;40;20309;-68
2021/07/27 10:36:41;;;;;;;;;;;;;;;32.85;30.66;95056.03;2950011;40;19989;-68
2021/07/27 10:38:46;;;;;;;;;;;;;;;32.95;30.99;95063.22;2950284;40;20414;-69
2021/07/27 10:40:50;;;;;;;;;;;;;;;32.97;30.52;95061.81;2954348;40;19960;-69
2021/07/27 10:42:52;;;;;;;;;;;;;;;32.84;30.71;95055.19;2950978;40;20284;-68
2021/07/27 10:44:54;;;;;;;;;;;;;;;32.73;30.54;95055.63;2948633;40;20016;-69
2021/07/27 10:46:55;;;;;;;;;;;;;;;32.65;30.63;95051.66;2941035;40;20310;-70
2021/07/27 10:48:57;;;;;;;;;;;;;;;32.62;30.83;95054.94;2948371;40;19937;-69
2021/07/27 10:50:58;;;;;;;;;;;;;;;32.32;31.12;95058.78;2945946;40;19945;-69
2021/07/27 10:53:06;;;;;;;;;;;;;;;32.27;30.82;95056.94;2948148;40;19969;-69
2021/07/27 10:55:08;;;;;;;;;;;;;;;32.20;30.78;95053.75;2948959;40;19981;-70
2021/07/27 10:57:09;;;;;;;;;;;;;;;32.23;31.01;95050.47;2945917;40;19950;-69
2021/07/27 10:59:11;;;;;;;;;;;;;;;32.43;31.40;95044.81;2947215;40;19961;-69